createdAt,value
2018-01-06T00:01:26.833Z,11.82
2018-01-06T00:03:56.553Z,17.65
2018-01-06T00:06:25.616Z,15.75
2018-01-06T00:08:55.479Z,13.23
2018-01-06T00:11:24.499Z,20.25
2018-01-06T00:13:53.701Z,15.30
2018-01-06T00:16:22.703Z,15.38
2018-01-06T00:18:52.509Z,14.43
2018-01-06T00:21:24.131Z,17.42
2018-01-06T00:23:53.142Z,17.90
2018-01-06T00:26:22.158Z,20.55
2018-01-06T00:28:51.898Z,19.77
2018-01-06T00:31:21.661Z,18.92
2018-01-06T00:33:50.687Z,15.57
2018-01-06T00:36:19.661Z,26.58
2018-01-06T00:38:49.412Z,17.37
2018-01-06T00:41:18.380Z,14.85
2018-01-06T00:43:48.137Z,19.40
2018-01-06T00:46:17.133Z,19.37
2018-01-06T00:48:46.116Z,18.80
2018-01-06T00:51:20.226Z,10.55
2018-01-06T00:53:49.206Z,17.15
2018-01-06T00:56:18.174Z,10.50
2018-01-06T00:58:47.921Z,11.75
2018-01-06T01:01:16.876Z,12.35
2018-01-06T01:04:17.334Z,10.43
2018-01-06T01:06:46.364Z,12.98
2018-01-06T01:09:15.346Z,9.27
2018-01-06T01:11:44.309Z,11.88
2018-01-06T01:14:13.347Z,10.73
2018-01-06T01:16:42.296Z,10.63
2018-01-06T01:19:11.239Z,9.60
2018-01-06T01:21:40.246Z,10.88
2018-01-06T01:24:10.064Z,19.62
2018-01-06T01:26:39.137Z,16.50
2018-01-06T01:29:08.080Z,14.15
2018-01-06T01:31:42.157Z,12.02
2018-01-06T01:34:12.271Z,12.23
2018-01-06T01:36:44.621Z,14.60
2018-01-06T01:39:14.344Z,13.18
2018-01-06T01:41:43.762Z,12.13
2018-01-06T01:44:12.749Z,13.85
2018-01-06T01:46:42.468Z,19.48
2018-01-06T01:49:12.253Z,7.47
2018-01-06T01:51:41.192Z,17.35
2018-01-06T01:54:10.187Z,10.15
2018-01-06T01:56:39.180Z,10.73
2018-01-06T01:59:08.124Z,7.65
2018-01-06T02:01:37.099Z,16.20
2018-01-06T02:04:06.107Z,10.88
2018-01-06T02:06:35.086Z,7.18
2018-01-06T02:09:04.248Z,8.82
2018-01-06T02:11:33.240Z,6.22
2018-01-06T02:15:05.412Z,10.00
2018-01-06T02:17:39.518Z,6.47
2018-01-06T02:20:08.493Z,7.78
2018-01-06T02:22:38.259Z,9.07
2018-01-06T02:25:07.267Z,6.55
2018-01-06T02:27:36.214Z,6.12
2018-01-06T02:30:05.156Z,8.45
2018-01-06T02:32:34.117Z,5.40
2018-01-06T02:35:03.080Z,5.20
2018-01-06T02:37:32.007Z,5.93
2018-01-06T02:40:00.978Z,9.30
2018-01-06T02:42:30.029Z,7.00
2018-01-06T02:44:58.997Z,8.57
2018-01-06T02:47:27.942Z,8.10
2018-01-06T02:49:56.989Z,10.15
2018-01-06T02:52:25.989Z,6.78
2018-01-06T02:54:54.994Z,5.87
2018-01-06T02:57:23.967Z,4.00
2018-01-06T02:59:52.953Z,6.47
2018-01-06T03:02:21.975Z,11.12
2018-01-06T03:04:50.931Z,6.10
2018-01-06T03:07:21.785Z,6.45
2018-01-06T03:09:50.768Z,6.85
2018-01-06T03:12:19.738Z,7.72
2018-01-06T03:14:48.698Z,5.30
2018-01-06T03:17:21.540Z,9.65
2018-01-06T03:19:50.488Z,8.18
2018-01-06T03:25:50.694Z,11.10
2018-01-06T03:28:19.689Z,7.85
2018-01-06T03:30:49.545Z,4.62
2018-01-06T03:33:18.605Z,8.07
2018-01-06T03:35:48.344Z,8.45
2018-01-06T03:38:17.269Z,6.40
2018-01-06T03:40:46.215Z,6.05
2018-01-06T03:43:15.907Z,9.90
2018-01-06T03:45:45.668Z,6.90
2018-01-06T03:48:14.681Z,7.35
2018-01-06T03:50:43.634Z,12.60
2018-01-06T03:53:12.604Z,7.68
2018-01-06T03:55:42.346Z,9.38
2018-01-06T03:58:11.267Z,18.52
2018-01-06T04:00:40.225Z,9.73
2018-01-06T04:03:09.505Z,8.80
2018-01-06T04:05:39.228Z,6.70
2018-01-06T04:08:08.322Z,8.27
2018-01-06T04:10:37.350Z,7.95
2018-01-06T04:13:06.541Z,9.98
2018-01-06T04:15:35.487Z,15.82
2018-01-06T04:18:05.260Z,9.05
2018-01-06T04:20:34.252Z,11.95
2018-01-06T04:23:03.940Z,11.35
2018-01-06T04:25:32.934Z,8.43
2018-01-06T04:28:01.931Z,14.38
2018-01-06T04:30:30.856Z,11.25
2018-01-06T04:32:59.791Z,10.27
2018-01-06T04:35:28.821Z,13.98
2018-01-06T04:37:57.826Z,11.00
2018-01-06T04:40:26.849Z,12.07
2018-01-06T04:46:27.828Z,10.35
2018-01-06T04:48:56.885Z,10.20
2018-01-06T04:51:26.151Z,10.05
2018-01-06T04:53:55.135Z,12.35
2018-01-06T04:56:24.090Z,11.52
2018-01-06T04:58:53.048Z,12.55
2018-01-06T05:01:26.598Z,10.70
2018-01-06T05:03:55.543Z,11.77
2018-01-06T05:06:24.513Z,9.50
2018-01-06T05:08:53.472Z,7.28
2018-01-06T05:11:22.420Z,10.00
2018-01-06T05:13:51.364Z,13.77
2018-01-06T05:16:20.312Z,13.43
2018-01-06T05:18:49.596Z,8.00
2018-01-06T05:21:18.629Z,12.55
2018-01-06T05:23:48.353Z,7.37
2018-01-06T05:26:17.339Z,8.25
2018-01-06T05:28:46.360Z,15.48
2018-01-06T05:31:15.335Z,7.57
2018-01-06T05:33:44.372Z,16.92
2018-01-06T05:36:14.068Z,9.75
2018-01-06T05:38:43.440Z,9.25
2018-01-06T05:41:12.413Z,8.45
2018-01-06T05:43:45.520Z,8.20
2018-01-06T05:46:14.496Z,6.30
2018-01-06T05:48:44.217Z,6.45
2018-01-06T05:51:23.783Z,9.45
2018-01-06T05:53:52.753Z,11.05
2018-01-06T05:56:21.878Z,7.28
2018-01-06T05:58:50.804Z,10.07
2018-01-06T06:01:31.737Z,8.75
2018-01-06T06:04:00.709Z,5.62
2018-01-06T06:06:30.533Z,6.82
2018-01-06T06:08:59.510Z,6.35
2018-01-06T06:11:28.570Z,14.57
2018-01-06T06:13:57.588Z,6.72
2018-01-06T06:16:26.881Z,8.10
2018-01-06T06:18:57.332Z,7.57
2018-01-06T06:21:26.308Z,13.32
2018-01-06T06:23:55.288Z,11.12
2018-01-06T06:26:25.039Z,9.10
2018-01-06T06:28:54.004Z,12.60
2018-01-06T06:31:22.989Z,11.98
2018-01-06T06:33:52.699Z,10.38
2018-01-06T06:36:22.444Z,11.55
2018-01-06T06:38:55.845Z,13.55
2018-01-06T06:41:24.793Z,13.80
2018-01-06T06:43:54.577Z,12.20
2018-01-06T06:46:23.673Z,12.27
2018-01-06T06:48:52.687Z,12.10
2018-01-06T06:51:22.470Z,11.30
2018-01-06T06:53:51.496Z,10.80
2018-01-06T06:56:20.577Z,9.13
2018-01-06T06:58:49.760Z,9.13
2018-01-06T07:01:18.992Z,13.10
2018-01-06T07:03:51.772Z,16.27
2018-01-06T07:06:20.921Z,11.40
2018-01-06T07:08:49.945Z,11.35
2018-01-06T07:11:19.812Z,14.50
2018-01-06T07:13:48.791Z,8.40
2018-01-06T07:16:18.643Z,10.43
2018-01-06T07:18:47.654Z,11.63
2018-01-06T07:21:23.441Z,10.57
2018-01-06T07:23:52.452Z,9.85
2018-01-06T07:26:21.483Z,9.65
2018-01-06T07:28:50.525Z,11.38
2018-01-06T07:31:19.772Z,14.55
2018-01-06T07:33:48.816Z,10.60
2018-01-06T07:36:17.865Z,9.35
2018-01-06T07:38:47.348Z,7.93
2018-01-06T07:41:16.396Z,12.13
2018-01-06T07:43:45.411Z,9.10
2018-01-06T07:46:14.456Z,8.23
2018-01-06T07:48:43.451Z,9.80
2018-01-06T07:51:12.460Z,12.48
2018-01-06T07:53:41.756Z,9.90
2018-01-06T07:56:11.492Z,11.02
2018-01-06T07:58:40.537Z,8.18
2018-01-06T08:01:09.656Z,7.00
2018-01-06T08:03:39.499Z,10.40
2018-01-06T08:06:08.608Z,11.02
2018-01-06T08:08:37.757Z,12.93
2018-01-06T08:11:07.568Z,11.80
2018-01-06T08:13:37.388Z,10.15
2018-01-06T08:16:07.177Z,6.93
2018-01-06T08:18:36.236Z,7.10
2018-01-06T08:21:05.476Z,13.35
2018-01-06T08:23:34.550Z,13.90
2018-01-06T08:26:03.569Z,8.38
2018-01-06T08:28:32.629Z,10.90
2018-01-06T08:31:02.013Z,7.60
2018-01-06T08:33:30.999Z,8.93
2018-01-06T08:36:00.177Z,10.00
2018-01-06T08:38:29.178Z,15.07
2018-01-06T08:40:58.207Z,9.38
2018-01-06T08:43:27.224Z,17.70
2018-01-06T08:45:56.242Z,13.02
2018-01-06T08:48:26.009Z,17.92
2018-01-06T08:50:55.040Z,16.70
2018-01-06T08:53:24.929Z,13.62
2018-01-06T08:55:54.808Z,13.32
2018-01-06T08:58:23.859Z,13.20
2018-01-06T09:00:53.750Z,9.32
2018-01-06T09:03:23.616Z,13.27
2018-01-06T09:05:52.565Z,13.20
2018-01-06T09:08:21.635Z,9.02
2018-01-06T09:10:50.858Z,15.32
2018-01-06T09:13:20.004Z,11.38
2018-01-06T09:15:49.962Z,11.45
2018-01-06T09:18:19.341Z,17.50
2018-01-06T09:20:49.293Z,16.10
2018-01-06T09:23:24.006Z,16.12
2018-01-06T09:25:53.028Z,15.25
2018-01-06T09:28:22.741Z,21.80
2018-01-06T09:30:52.668Z,14.40
2018-01-06T09:33:22.542Z,19.48
2018-01-06T09:35:51.581Z,17.58
2018-01-06T09:38:20.620Z,20.83
2018-01-06T09:40:49.689Z,13.55
2018-01-06T09:43:18.698Z,15.80
2018-01-06T09:45:48.474Z,20.92
2018-01-06T09:48:17.678Z,20.02
2018-01-06T09:50:46.775Z,18.42
2018-01-06T09:53:16.088Z,20.65
2018-01-06T09:55:45.108Z,18.15
2018-01-06T09:58:14.183Z,17.95
2018-01-06T10:00:43.243Z,21.87
2018-01-06T10:03:13.068Z,16.83
2018-01-06T10:05:42.895Z,16.80
2018-01-06T10:08:11.980Z,16.08
2018-01-06T10:10:41.846Z,14.95
2018-01-06T10:13:11.847Z,11.48
2018-01-06T10:15:41.001Z,10.18
2018-01-06T10:18:10.017Z,11.02
2018-01-06T10:20:39.115Z,11.73
2018-01-06T10:23:08.141Z,12.65
2018-01-06T10:25:37.216Z,11.93
2018-01-06T10:28:07.895Z,12.82
2018-01-06T10:31:56.469Z,11.68
2018-01-06T10:34:25.679Z,8.05
2018-01-06T10:36:54.879Z,14.55
2018-01-06T10:39:23.921Z,9.20
2018-01-06T10:41:58.144Z,11.52
2018-01-06T10:44:27.960Z,6.55
2018-01-06T10:47:03.948Z,8.18
2018-01-06T10:49:33.219Z,7.97
2018-01-06T10:52:03.045Z,7.72
2018-01-06T10:54:42.848Z,7.47
2018-01-06T10:57:12.667Z,7.53
2018-01-06T10:59:41.864Z,8.23
2018-01-06T11:02:11.151Z,8.23
2018-01-06T11:04:40.220Z,7.70
2018-01-06T11:07:13.529Z,5.47
2018-01-06T11:09:43.475Z,7.75
2018-01-06T11:12:12.619Z,10.30
2018-01-06T11:14:41.973Z,6.07
2018-01-06T11:17:11.989Z,4.95
2018-01-06T11:19:41.648Z,8.55
2018-01-06T11:22:12.765Z,6.68
2018-01-06T11:24:42.280Z,8.27
2018-01-06T11:27:16.022Z,8.32
2018-01-06T11:29:46.716Z,9.20
2018-01-06T11:32:15.911Z,13.35
2018-01-06T11:34:46.689Z,8.35
2018-01-06T11:37:16.910Z,10.85
2018-01-06T11:39:46.303Z,7.40
2018-01-06T11:42:18.330Z,12.82
2018-01-06T11:44:48.775Z,14.43
2018-01-06T11:47:20.736Z,8.60
2018-01-06T11:49:50.864Z,6.72
2018-01-06T11:52:26.950Z,7.28
2018-01-06T11:54:57.928Z,8.30
2018-01-06T11:57:29.749Z,8.85
2018-01-06T11:59:59.930Z,12.75
2018-01-06T12:02:28.981Z,11.00
2018-01-06T12:04:59.145Z,12.60
2018-01-06T12:07:30.912Z,12.07
2018-01-06T12:10:00.964Z,12.77
2018-01-06T12:12:31.119Z,11.25
2018-01-06T12:15:02.189Z,10.07
2018-01-06T12:17:31.353Z,10.50
2018-01-06T12:20:01.549Z,7.82
2018-01-06T12:22:30.641Z,10.93
2018-01-06T12:25:01.779Z,8.93
2018-01-06T12:27:31.694Z,9.73
2018-01-06T12:30:03.449Z,8.48
2018-01-06T12:32:35.129Z,8.70
2018-01-06T12:35:05.686Z,12.18
2018-01-06T12:37:37.781Z,8.32
2018-01-06T12:40:08.430Z,9.95
2018-01-06T12:42:39.826Z,13.60
2018-01-06T12:45:09.709Z,7.30
2018-01-06T12:47:41.653Z,13.43
2018-01-06T12:50:11.536Z,9.52
2018-01-06T12:52:42.861Z,9.57
2018-01-06T12:55:13.729Z,9.00
2018-01-06T12:57:45.264Z,13.82
2018-01-06T13:00:16.940Z,12.55
2018-01-06T13:02:49.336Z,11.77
2018-01-06T13:05:18.823Z,10.55
2018-01-06T13:07:51.180Z,11.15
2018-01-06T13:10:22.952Z,9.70
2018-01-06T13:12:55.846Z,12.88
2018-01-06T13:15:27.446Z,10.57
2018-01-06T13:17:58.196Z,11.20
2018-01-06T13:20:29.443Z,10.70
2018-01-06T13:22:58.859Z,13.68
2018-01-06T13:25:28.901Z,12.02
2018-01-06T13:27:58.454Z,11.90
2018-01-06T13:30:30.374Z,8.23
2018-01-06T13:33:01.328Z,9.60
2018-01-06T13:35:30.887Z,7.68
2018-01-06T13:38:01.618Z,11.85
2018-01-06T13:40:33.823Z,10.40
2018-01-06T13:43:05.094Z,9.38
2018-01-06T13:45:37.452Z,9.40
2018-01-06T13:48:08.567Z,11.65
2018-01-06T13:50:40.799Z,11.68
2018-01-06T13:53:11.741Z,8.55
2018-01-06T13:55:42.839Z,9.10
2018-01-06T13:58:13.016Z,11.43
2018-01-06T14:00:45.416Z,10.40
2018-01-06T14:03:16.134Z,8.50
2018-01-06T14:05:49.245Z,11.55
2018-01-06T14:08:22.348Z,13.45
2018-01-06T14:10:55.806Z,13.57
2018-01-06T14:13:32.109Z,13.30
2018-01-06T14:16:04.843Z,12.02
2018-01-06T14:18:37.952Z,9.85
2018-01-06T14:21:09.339Z,9.07
2018-01-06T14:23:39.471Z,12.43
2018-01-06T14:26:09.400Z,10.45
2018-01-06T14:28:41.959Z,12.50
2018-01-06T14:31:11.679Z,11.68
2018-01-06T14:33:42.509Z,16.17
2018-01-06T14:36:13.741Z,9.98
2018-01-06T14:38:46.669Z,14.40
2018-01-06T14:41:25.365Z,10.45
2018-01-06T14:43:56.972Z,11.00
2018-01-06T14:46:37.936Z,10.45
2018-01-06T14:49:08.458Z,14.10
2018-01-06T14:51:39.511Z,17.05
2018-01-06T14:54:13.610Z,16.77
2018-01-06T14:56:49.065Z,12.45
2018-01-06T14:59:21.659Z,18.15
2018-01-06T15:01:54.938Z,21.10
2018-01-06T15:04:26.122Z,19.70
2018-01-06T15:06:58.856Z,15.57
2018-01-06T15:09:29.727Z,16.30
2018-01-06T15:12:03.068Z,15.32
2018-01-06T15:14:36.543Z,13.10
2018-01-06T15:17:07.220Z,15.68
2018-01-06T15:19:39.464Z,14.93
2018-01-06T15:22:09.859Z,13.07
2018-01-06T15:24:40.799Z,12.32
2018-01-06T15:27:11.580Z,15.18
2018-01-06T15:29:42.868Z,16.83
2018-01-06T15:32:13.004Z,16.77
2018-01-06T15:34:46.604Z,17.45
2018-01-06T15:37:15.863Z,17.67
2018-01-06T15:39:46.609Z,16.12
2018-01-06T15:42:22.887Z,17.02
2018-01-06T15:44:55.911Z,17.27
2018-01-06T15:47:28.236Z,16.40
2018-01-06T15:49:59.524Z,18.37
2018-01-06T15:52:31.832Z,20.02
2018-01-06T15:55:03.800Z,20.05
2018-01-06T15:57:36.984Z,20.62
2018-01-06T16:00:13.676Z,21.45
2018-01-06T16:02:43.632Z,21.90
2018-01-06T16:05:15.887Z,17.17
2018-01-06T16:07:47.649Z,18.20
2018-01-06T16:10:18.329Z,18.80
2018-01-06T16:12:50.363Z,16.50
2018-01-06T16:15:22.249Z,14.68
2018-01-06T16:17:59.165Z,18.12
2018-01-06T16:20:29.731Z,15.35
2018-01-06T16:23:01.311Z,19.17
2018-01-06T16:25:32.604Z,19.85
2018-01-06T16:28:02.765Z,24.12
2018-01-06T16:30:32.561Z,16.17
2018-01-06T16:33:08.161Z,17.33
2018-01-06T16:35:37.637Z,19.12
2018-01-06T16:38:08.502Z,15.55
2018-01-06T16:40:40.104Z,18.58
2018-01-06T16:43:13.236Z,16.42
2018-01-06T16:45:44.429Z,17.67
2018-01-06T16:48:16.302Z,12.27
2018-01-06T16:50:45.990Z,15.32
2018-01-06T16:53:18.181Z,13.43
2018-01-06T16:55:48.788Z,13.93
2018-01-06T16:58:23.181Z,16.05
2018-01-06T17:00:58.144Z,16.77
2018-01-06T17:03:39.391Z,14.43
2018-01-06T17:06:12.690Z,17.77
2018-01-06T17:08:42.484Z,17.87
2018-01-06T17:14:04.193Z,17.12
2018-01-06T17:16:38.022Z,13.10
2018-01-06T17:19:10.838Z,21.85
2018-01-06T17:21:58.052Z,14.87
2018-01-06T17:24:35.356Z,20.25
2018-01-06T17:27:11.118Z,12.60
2018-01-06T17:29:43.943Z,12.05
2018-01-06T17:32:16.408Z,16.05
2018-01-06T17:34:48.568Z,18.87
2018-01-06T17:37:21.422Z,17.40
2018-01-06T17:40:06.298Z,15.63
2018-01-06T17:42:39.687Z,13.55
2018-01-06T17:45:09.317Z,15.77
2018-01-06T17:47:42.675Z,12.27
2018-01-06T17:50:12.898Z,17.67
2018-01-06T17:52:47.497Z,17.80
2018-01-06T17:55:18.688Z,11.35
2018-01-06T17:57:51.634Z,14.52
2018-01-06T18:00:23.634Z,14.87
2018-01-06T18:02:58.812Z,17.45
2018-01-06T18:05:32.014Z,16.27
2018-01-06T18:08:06.541Z,14.27
2018-01-06T18:10:39.565Z,12.30
2018-01-06T18:13:10.366Z,12.25
2018-01-06T18:15:50.286Z,16.52
2018-01-06T18:18:21.719Z,14.43
2018-01-06T18:21:00.444Z,17.33
2018-01-06T18:23:31.702Z,19.25
2018-01-06T18:26:03.886Z,13.32
2018-01-06T18:28:37.252Z,16.33
2018-01-06T18:31:12.449Z,14.95
2018-01-06T18:33:46.039Z,12.75
2018-01-06T18:36:21.832Z,14.70
2018-01-06T18:38:57.706Z,14.20
2018-01-06T18:41:28.399Z,15.70
2018-01-06T18:43:59.751Z,12.00
2018-01-06T18:46:32.392Z,17.55
2018-01-06T18:49:09.991Z,15.60
2018-01-06T18:51:42.734Z,13.15
2018-01-06T18:54:23.981Z,12.52
2018-01-06T18:57:06.648Z,12.90
2018-01-06T18:59:40.561Z,11.40
2018-01-06T19:02:19.886Z,12.85
2018-01-06T19:04:54.372Z,13.02
2018-01-06T19:07:40.157Z,13.50
2018-01-06T19:10:17.557Z,13.07
2018-01-06T19:13:00.171Z,14.20
2018-01-06T19:15:35.754Z,9.30
2018-01-06T19:18:09.538Z,9.48
2018-01-06T19:20:43.468Z,10.90
2018-01-06T19:23:15.420Z,15.68
2018-01-06T19:25:46.424Z,23.00
2018-01-06T19:28:16.618Z,17.27
2018-01-06T19:30:48.649Z,17.48
2018-01-06T19:33:20.153Z,14.85
2018-01-06T19:35:57.107Z,16.25
2018-01-06T19:38:27.214Z,14.95
2018-01-06T19:40:58.043Z,18.67
2018-01-06T19:43:33.980Z,21.95
2018-01-06T19:46:09.643Z,19.23
2018-01-06T19:48:49.830Z,16.83
2018-01-06T19:51:22.996Z,15.10
2018-01-06T19:53:56.516Z,12.95
2018-01-06T19:57:02.128Z,12.43
2018-01-06T19:59:34.865Z,20.25
2018-01-06T20:02:05.022Z,22.02
2018-01-06T20:04:39.725Z,20.12
2018-01-06T20:07:11.605Z,22.73
2018-01-06T20:09:53.034Z,21.52
2018-01-06T20:12:26.434Z,20.55
2018-01-06T20:15:02.903Z,18.40
2018-01-06T20:17:35.284Z,19.35
2018-01-06T20:20:11.144Z,18.37
2018-01-06T20:23:00.334Z,17.55
2018-01-06T20:25:34.108Z,19.75
2018-01-06T20:28:13.437Z,23.98
2018-01-06T20:30:53.430Z,22.95
2018-01-06T20:33:31.432Z,23.30
2018-01-06T20:36:17.693Z,26.67
2018-01-06T20:38:52.042Z,27.35
2018-01-06T20:41:25.318Z,27.95
2018-01-06T20:44:01.169Z,22.95
2018-01-06T20:46:34.533Z,20.15
2018-01-06T20:49:08.760Z,23.65
2018-01-06T20:51:50.874Z,25.12
2018-01-06T20:54:24.268Z,31.50
2018-01-06T20:59:38.014Z,28.50
2018-01-06T21:02:11.759Z,33.78
2018-01-06T21:04:48.777Z,31.27
2018-01-06T21:07:19.140Z,35.47
2018-01-06T21:09:54.263Z,41.37
2018-01-06T21:12:31.309Z,43.00
2018-01-06T21:15:02.600Z,35.17
2018-01-06T21:17:35.475Z,42.45
2018-01-06T21:20:07.135Z,40.50
2018-01-06T21:22:36.425Z,41.85
2018-01-06T21:25:09.568Z,39.30
2018-01-06T21:27:42.397Z,38.83
2018-01-06T21:30:16.419Z,39.75
2018-01-06T21:32:52.978Z,43.58
2018-01-06T21:35:23.987Z,34.58
2018-01-06T21:38:12.769Z,34.72
2018-01-06T21:40:45.850Z,37.70
2018-01-06T21:43:24.457Z,36.10
2018-01-06T21:46:01.242Z,38.88
2018-01-06T21:48:33.272Z,36.85
2018-01-06T21:51:23.544Z,31.37
2018-01-06T21:54:01.021Z,31.50
2018-01-06T21:56:31.189Z,29.52
2018-01-06T21:59:04.206Z,37.55
2018-01-06T22:01:34.283Z,30.90
2018-01-06T22:04:04.753Z,30.48
2018-01-06T22:06:46.327Z,35.33
2018-01-06T22:09:18.181Z,28.80
2018-01-06T22:11:56.792Z,35.88
2018-01-06T22:14:37.297Z,35.03
2018-01-06T22:17:13.438Z,39.08
2018-01-06T22:19:53.802Z,31.25
2018-01-06T22:22:27.128Z,38.78
2018-01-06T22:24:59.672Z,34.08
2018-01-06T22:27:35.199Z,31.70
2018-01-06T22:30:05.949Z,34.65
2018-01-06T22:32:42.248Z,43.95
2018-01-06T22:35:20.419Z,35.97
2018-01-06T22:37:51.812Z,37.80
2018-01-06T22:40:22.949Z,48.92
2018-01-06T22:42:56.303Z,40.65
2018-01-06T22:45:33.006Z,45.55
2018-01-06T22:48:06.915Z,45.28
2018-01-06T22:50:36.915Z,46.67
2018-01-06T22:53:12.248Z,52.10
2018-01-06T22:55:46.701Z,55.08
2018-01-06T22:58:17.553Z,50.42
2018-01-06T23:00:51.830Z,52.25
2018-01-06T23:03:21.231Z,48.92
2018-01-06T23:05:59.110Z,53.28
2018-01-06T23:08:31.463Z,59.30
2018-01-06T23:11:01.861Z,58.40
2018-01-06T23:13:32.422Z,57.03
2018-01-06T23:16:04.399Z,60.55
2018-01-06T23:18:38.853Z,65.12
2018-01-06T23:21:12.323Z,58.20
2018-01-06T23:23:45.980Z,55.90
2018-01-06T23:26:20.145Z,58.17
2018-01-06T23:28:53.333Z,53.47
2018-01-06T23:31:25.208Z,51.20
2018-01-06T23:33:55.840Z,51.72
2018-01-06T23:36:27.668Z,52.53
2018-01-06T23:38:58.095Z,57.88
2018-01-06T23:41:29.594Z,52.97
2018-01-06T23:43:59.941Z,53.17
2018-01-06T23:46:30.553Z,56.45
2018-01-06T23:49:00.438Z,48.33
2018-01-06T23:51:30.732Z,55.47
2018-01-06T23:53:59.784Z,47.15
2018-01-06T23:56:29.136Z,46.15
2018-01-06T23:58:59.488Z,45.30
